createdAt,value
2023-05-22T00:00:01.360Z,3.00
2023-05-22T00:05:07.716Z,3.10
2023-05-22T00:10:11.660Z,3.38
2023-05-22T00:15:15.085Z,3.20
2023-05-22T00:20:19.907Z,3.70
2023-05-22T00:25:23.767Z,3.92
2023-05-22T00:30:27.287Z,3.20
2023-05-22T00:35:32.250Z,2.92
2023-05-22T00:45:39.336Z,3.08
2023-05-22T00:50:44.300Z,3.33
2023-05-22T00:55:48.171Z,3.00
2023-05-22T01:00:52.354Z,3.22
2023-05-22T01:05:57.107Z,3.17
2023-05-22T01:11:05.402Z,3.45
2023-05-22T01:16:18.980Z,3.50
2023-05-22T01:21:30.175Z,3.05
2023-05-22T01:26:59.787Z,3.13
2023-05-22T01:32:06.493Z,3.05
2023-05-22T01:37:10.913Z,2.95
2023-05-22T01:42:15.268Z,3.03
2023-05-22T01:47:20.409Z,3.25
2023-05-22T01:52:30.145Z,3.03
2023-05-22T01:57:43.821Z,2.97
2023-05-22T02:02:56.433Z,3.17
2023-05-22T02:08:01.586Z,2.80
2023-05-22T02:18:13.384Z,2.63
2023-05-22T02:23:16.973Z,3.00
2023-05-22T02:28:20.438Z,3.08
2023-05-22T02:33:27.025Z,2.90
2023-05-22T02:38:30.692Z,3.33
2023-05-22T02:43:34.688Z,2.88
2023-05-22T02:48:39.847Z,3.08
2023-05-22T02:53:43.856Z,3.10
2023-05-22T02:58:47.235Z,2.85
2023-05-22T03:03:52.058Z,3.42
2023-05-22T03:08:56.482Z,3.28
2023-05-22T03:14:00.725Z,3.15
2023-05-22T03:19:10.420Z,3.15
2023-05-22T03:24:14.546Z,3.00
2023-05-22T03:29:18.171Z,3.20
2023-05-22T03:34:23.132Z,3.33
2023-05-22T03:39:27.305Z,3.00
2023-05-22T03:44:50.282Z,3.25
2023-05-22T03:49:56.822Z,3.58
2023-05-22T03:55:00.443Z,2.90
2023-05-22T04:00:09.898Z,2.95
2023-05-22T04:05:17.949Z,3.33
2023-05-22T04:10:23.478Z,2.90
2023-05-22T04:15:27.181Z,4.43
2023-05-22T04:20:32.321Z,3.20
2023-05-22T04:30:40.507Z,3.63
2023-05-22T04:35:45.623Z,3.37
2023-05-22T04:40:50.268Z,3.00
2023-05-22T04:45:54.914Z,3.05
2023-05-22T04:51:02.925Z,3.28
2023-05-22T04:56:07.592Z,3.42
2023-05-22T05:01:11.759Z,3.85
2023-05-22T05:06:17.361Z,4.50
2023-05-22T05:16:26.357Z,3.60
2023-05-22T05:21:31.490Z,3.47
2023-05-22T05:26:37.311Z,3.90
2023-05-22T05:31:41.754Z,3.28
2023-05-22T05:36:52.533Z,3.78
2023-05-22T05:41:58.509Z,3.22
2023-05-22T05:47:02.503Z,4.55
2023-05-22T05:52:08.433Z,3.27
2023-05-22T05:57:14.660Z,3.45
2023-05-22T06:02:19.357Z,3.75
2023-05-22T06:07:25.369Z,3.78
2023-05-22T06:12:32.079Z,4.70
2023-05-22T06:17:35.782Z,3.47
2023-05-22T06:22:41.108Z,3.80
2023-05-22T06:27:45.716Z,3.42
2023-05-22T06:32:49.919Z,3.65
2023-05-22T06:37:57.355Z,3.72
2023-05-22T06:43:02.484Z,3.75
2023-05-22T06:48:14.706Z,4.10
2023-05-22T06:53:34.222Z,4.13
2023-05-22T06:58:38.889Z,3.92
2023-05-22T07:03:43.269Z,4.25
2023-05-22T07:09:11.361Z,4.47
2023-05-22T07:14:15.368Z,3.78
2023-05-22T07:24:25.035Z,3.97
2023-05-22T07:29:29.002Z,4.10
2023-05-22T07:34:34.638Z,4.25
2023-05-22T07:39:42.709Z,5.32
2023-05-22T07:44:46.990Z,4.43
2023-05-22T07:49:51.739Z,4.10
2023-05-22T07:54:57.553Z,4.30
2023-05-22T08:00:09.641Z,4.43
2023-05-22T08:05:16.323Z,4.03
2023-05-22T08:10:21.136Z,4.10
2023-05-22T08:15:24.571Z,3.97
2023-05-22T08:20:28.171Z,3.90
2023-05-22T08:25:33.016Z,3.70
2023-05-22T08:30:37.886Z,4.20
2023-05-22T08:35:41.511Z,3.50
2023-05-22T08:40:49.910Z,3.92
2023-05-22T08:45:57.914Z,3.78
2023-05-22T08:51:04.061Z,3.67
2023-05-22T08:56:09.377Z,3.40
2023-05-22T09:01:14.464Z,3.67
2023-05-22T09:06:18.655Z,3.63
2023-05-22T09:11:23.441Z,3.45
2023-05-22T09:16:27.192Z,3.50
2023-05-22T09:21:31.381Z,2.88
2023-05-22T09:26:39.507Z,3.78
2023-05-22T09:31:44.647Z,3.08
2023-05-22T09:36:51.638Z,3.60
2023-05-22T09:42:01.594Z,3.58
2023-05-22T09:47:07.393Z,3.95
2023-05-22T09:52:12.726Z,3.17
2023-05-22T09:57:19.598Z,3.20
2023-05-22T10:02:24.240Z,3.35
2023-05-22T10:07:34.435Z,3.47
2023-05-22T10:12:43.405Z,3.10
2023-05-22T10:17:48.206Z,3.30
2023-05-22T10:22:53.404Z,3.45
2023-05-22T10:27:59.821Z,3.38
2023-05-22T10:33:09.769Z,3.20
2023-05-22T10:38:39.307Z,3.15
2023-05-22T10:43:48.316Z,2.85
2023-05-22T10:48:55.391Z,3.45
2023-05-22T10:54:02.258Z,2.85
2023-05-22T10:59:08.455Z,3.13
2023-05-22T11:04:12.493Z,3.58
2023-05-22T11:09:19.725Z,2.72
2023-05-22T11:14:26.184Z,3.10
2023-05-22T11:19:29.712Z,2.53
2023-05-22T11:24:34.386Z,3.07
2023-05-22T11:29:44.546Z,2.97
2023-05-22T11:34:50.482Z,3.30
2023-05-22T11:39:57.164Z,2.92
2023-05-22T11:45:02.382Z,3.15
2023-05-22T11:50:09.918Z,2.58
2023-05-22T11:55:13.398Z,2.75
2023-05-22T12:00:19.909Z,2.90
2023-05-22T12:05:23.549Z,2.72
2023-05-22T12:10:27.036Z,2.70
2023-05-22T12:15:31.957Z,2.65
2023-05-22T12:20:35.756Z,2.40
2023-05-22T12:25:39.346Z,2.60
2023-05-22T12:30:44.300Z,2.55
2023-05-22T12:35:52.157Z,2.60
2023-05-22T12:40:56.612Z,2.70
2023-05-22T12:46:02.835Z,2.50
2023-05-22T12:51:06.747Z,2.50
2023-05-22T12:56:10.322Z,2.90
2023-05-22T13:01:16.379Z,2.17
2023-05-22T13:06:20.759Z,2.78
2023-05-22T13:11:26.606Z,2.47
2023-05-22T13:16:31.923Z,2.10
2023-05-22T13:21:36.444Z,2.75
2023-05-22T13:26:39.912Z,2.38
2023-05-22T13:31:45.146Z,2.47
2023-05-22T13:36:48.668Z,2.20
2023-05-22T13:41:53.246Z,2.15
2023-05-22T13:46:58.240Z,2.38
2023-05-22T13:52:01.772Z,2.83
2023-05-22T13:57:06.504Z,2.83
2023-05-22T14:02:11.466Z,3.15
2023-05-22T14:07:15.035Z,2.78
2023-05-22T14:12:19.027Z,2.17
2023-05-22T14:17:24.318Z,2.15
2023-05-22T14:22:28.054Z,2.20
2023-05-22T14:27:31.534Z,2.40
2023-05-22T14:32:36.305Z,2.77
2023-05-22T14:37:39.818Z,1.90
2023-05-22T14:42:43.365Z,2.73
2023-05-22T14:47:48.235Z,2.38
2023-05-22T14:52:51.860Z,2.45
2023-05-22T14:57:55.688Z,2.50
2023-05-22T15:08:06.882Z,2.58
2023-05-22T15:13:11.761Z,2.38
2023-05-22T15:18:17.105Z,2.75
2023-05-22T15:23:25.642Z,2.40
2023-05-22T15:28:29.161Z,2.80
2023-05-22T15:33:34.389Z,2.50
2023-05-22T15:38:38.303Z,2.33
2023-05-22T15:43:41.815Z,3.37
2023-05-22T15:48:47.384Z,2.40
2023-05-22T15:53:51.625Z,2.60
2023-05-22T15:58:55.223Z,2.63
2023-05-22T16:04:01.073Z,2.23
2023-05-22T16:09:04.609Z,2.30
2023-05-22T16:14:08.305Z,2.63
2023-05-22T16:19:13.617Z,2.17
2023-05-22T16:24:17.338Z,2.20
2023-05-22T16:29:21.513Z,2.70
2023-05-22T16:34:26.316Z,2.37
2023-05-22T16:39:29.847Z,2.20
2023-05-22T16:44:33.355Z,2.22
2023-05-22T16:49:39.199Z,2.80
2023-05-22T16:54:42.656Z,2.30
2023-05-22T16:59:46.290Z,2.22
2023-05-22T17:04:51.309Z,2.45
2023-05-22T17:09:54.854Z,2.20
2023-05-22T17:14:58.537Z,2.67
2023-05-22T17:20:06.822Z,2.77
2023-05-22T17:25:10.670Z,2.25
2023-05-22T17:30:14.279Z,3.05
2023-05-22T17:35:19.674Z,2.45
2023-05-22T17:40:29.548Z,2.80
2023-05-22T17:45:49.533Z,2.40
2023-05-22T17:50:54.787Z,2.47
2023-05-22T17:55:58.432Z,2.47
2023-05-22T18:01:01.949Z,2.47
2023-05-22T18:06:07.371Z,2.50
2023-05-22T18:11:11.004Z,2.30
2023-05-22T18:16:18.557Z,3.50
2023-05-22T18:21:23.754Z,2.15
2023-05-22T18:26:27.524Z,2.38
2023-05-22T18:31:31.301Z,2.97
2023-05-22T18:36:36.097Z,2.47
2023-05-22T18:41:39.497Z,2.72
2023-05-22T18:46:42.950Z,2.50
2023-05-22T18:51:47.775Z,2.63
2023-05-22T19:01:54.726Z,2.83
2023-05-22T19:07:00.338Z,2.38
2023-05-22T19:12:04.116Z,2.95
2023-05-22T19:17:08.202Z,2.20
2023-05-22T19:22:13.190Z,2.20
2023-05-22T19:32:21.157Z,2.50
2023-05-22T19:37:26.255Z,2.70
2023-05-22T19:47:33.073Z,2.25
2023-05-22T19:52:37.916Z,2.60
2023-05-22T19:57:44.467Z,2.55
2023-05-22T20:02:48.310Z,3.13
2023-05-22T20:07:53.127Z,2.47
2023-05-22T20:12:56.668Z,2.70
2023-05-22T20:18:02.478Z,3.22
2023-05-22T20:23:07.785Z,2.75
2023-05-22T20:28:11.228Z,3.22
2023-05-22T20:33:15.235Z,2.50
2023-05-22T20:38:20.478Z,2.75
2023-05-22T20:48:29.742Z,2.60
2023-05-22T20:53:34.586Z,2.63
2023-05-22T20:58:39.187Z,3.97
2023-05-22T21:03:43.114Z,2.50
2023-05-22T21:08:47.998Z,3.10
2023-05-22T21:13:52.141Z,2.85
2023-05-22T21:18:56.432Z,2.92
2023-05-22T21:24:01.289Z,3.25
2023-05-22T21:29:05.049Z,2.95
2023-05-22T21:34:09.780Z,2.70
2023-05-22T21:39:14.775Z,2.63
2023-05-22T21:44:18.526Z,3.45
2023-05-22T21:49:22.776Z,2.47
2023-05-22T21:54:28.630Z,3.13
2023-05-22T21:59:32.139Z,2.88
2023-05-22T22:04:35.682Z,2.78
2023-05-22T22:09:40.823Z,3.10
2023-05-22T22:14:44.234Z,3.28
2023-05-22T22:19:47.650Z,2.80
2023-05-22T22:24:52.952Z,2.90
2023-05-22T22:29:56.447Z,2.67
2023-05-22T22:35:00.029Z,2.80
2023-05-22T22:40:05.636Z,3.08
2023-05-22T22:45:10.598Z,3.28
2023-05-22T22:50:14.362Z,2.93
2023-05-22T22:55:19.556Z,2.60
2023-05-22T23:00:23.690Z,3.40
2023-05-22T23:05:27.514Z,2.70
2023-05-22T23:10:32.240Z,3.20
2023-05-22T23:15:35.792Z,3.00
2023-05-22T23:20:39.407Z,2.67
2023-05-22T23:25:44.164Z,2.90
2023-05-22T23:30:47.513Z,2.95
2023-05-22T23:35:51.044Z,2.50
2023-05-22T23:40:55.727Z,2.92
2023-05-22T23:45:59.162Z,2.95
2023-05-22T23:51:02.751Z,2.63
2023-05-22T23:56:09.972Z,2.83
